createdAt,value
2018-01-18T00:00:01.249Z,7.71
2018-01-18T00:00:41.712Z,7.79
2018-01-18T00:01:22.091Z,7.86
2018-01-18T00:02:02.528Z,7.88
2018-01-18T00:02:42.902Z,7.89
2018-01-18T00:03:23.342Z,7.96
2018-01-18T00:04:03.921Z,7.96
2018-01-18T00:04:44.233Z,7.99
2018-01-18T00:05:24.698Z,7.92
2018-01-18T00:06:05.289Z,7.92
2018-01-18T00:06:45.690Z,7.99
2018-01-18T00:07:26.136Z,8.1
2018-01-18T00:08:06.520Z,8.03
2018-01-18T00:08:47.914Z,8.1
2018-01-18T00:09:28.312Z,8.18
2018-01-18T00:10:08.670Z,8.09
2018-01-18T00:10:49.103Z,8.13
2018-01-18T00:11:29.415Z,7.99
2018-01-18T00:12:09.868Z,7.99
2018-01-18T00:12:50.305Z,8
2018-01-18T00:13:30.657Z,7.89
2018-01-18T00:14:11.096Z,7.96
2018-01-18T00:14:51.525Z,8.03
2018-01-18T00:15:31.893Z,8
2018-01-18T00:16:12.301Z,7.92
2018-01-18T00:16:52.748Z,8.09
2018-01-18T00:17:34.076Z,8.14
2018-01-18T00:18:14.367Z,8.2
2018-01-18T00:18:54.809Z,8.06
2018-01-18T00:19:35.214Z,8.06
2018-01-18T00:20:15.587Z,8.13
2018-01-18T00:20:55.943Z,8.13
2018-01-18T00:21:36.313Z,8.12
2018-01-18T00:22:16.778Z,8.21
2018-01-18T00:22:58.077Z,8.29
2018-01-18T00:23:38.436Z,8.32
2018-01-18T00:24:18.762Z,8.27
2018-01-18T00:24:59.199Z,8.21
2018-01-18T00:25:39.548Z,8.2
2018-01-18T00:26:20.027Z,8.14
2018-01-18T00:27:00.371Z,8.14
2018-01-18T00:27:40.829Z,8.02
2018-01-18T00:28:21.088Z,7.92
2018-01-18T00:29:01.581Z,7.92
2018-01-18T00:29:41.939Z,7.95
2018-01-18T00:30:22.356Z,7.82
2018-01-18T00:31:02.860Z,7.85
2018-01-18T00:31:43.223Z,7.82
2018-01-18T00:32:23.600Z,7.99
2018-01-18T00:33:04.047Z,7.81
2018-01-18T00:33:44.443Z,7.81
2018-01-18T00:34:24.813Z,7.85
2018-01-18T00:35:05.275Z,7.81
2018-01-18T00:35:45.632Z,7.74
2018-01-18T00:36:26.079Z,7.86
2018-01-18T00:37:06.455Z,7.76
2018-01-18T00:37:46.895Z,7.79
2018-01-18T00:38:27.526Z,7.7
2018-01-18T00:39:07.909Z,7.81
2018-01-18T00:39:48.320Z,7.79
2018-01-18T00:40:28.856Z,7.84
2018-01-18T00:41:09.320Z,7.85
2018-01-18T00:41:49.764Z,7.82
2018-01-18T00:42:30.150Z,7.81
2018-01-18T00:43:10.950Z,7.86
2018-01-18T00:43:50.933Z,7.89
2018-01-18T00:44:31.411Z,7.82
2018-01-18T00:45:11.771Z,7.71
2018-01-18T00:45:52.172Z,7.77
2018-01-18T00:46:32.600Z,7.71
2018-01-18T00:47:13.027Z,7.7
2018-01-18T00:47:53.350Z,7.73
2018-01-18T00:48:33.819Z,7.74
2018-01-18T00:49:14.262Z,7.67
2018-01-18T00:49:54.748Z,7.76
2018-01-18T00:50:35.240Z,7.85
2018-01-18T00:51:15.641Z,7.85
2018-01-18T00:51:56.020Z,7.92
2018-01-18T00:52:36.496Z,7.88
2018-01-18T00:53:16.907Z,7.94
2018-01-18T00:53:57.291Z,7.88
2018-01-18T00:54:37.707Z,7.88
2018-01-18T00:55:18.129Z,7.94
2018-01-18T00:55:58.530Z,7.94
2018-01-18T00:56:38.879Z,7.84
2018-01-18T00:57:19.308Z,7.77
2018-01-18T00:58:00.540Z,7.73
2018-01-18T00:58:40.877Z,7.74
2018-01-18T00:59:21.464Z,7.76
2018-01-18T01:00:01.804Z,7.7
2018-01-18T01:00:42.145Z,7.62
2018-01-18T01:01:22.585Z,7.73
2018-01-18T01:02:02.985Z,7.71
2018-01-18T01:02:43.341Z,7.7
2018-01-18T01:03:23.807Z,7.71
2018-01-18T01:04:04.185Z,7.76
2018-01-18T01:04:44.526Z,7.67
2018-01-18T01:05:25.046Z,7.71
2018-01-18T01:06:05.382Z,7.69
2018-01-18T01:06:45.764Z,7.7
2018-01-18T01:07:26.162Z,7.63
2018-01-18T01:08:06.711Z,7.63
2018-01-18T01:08:47.122Z,7.62
2018-01-18T01:09:27.541Z,7.55
2018-01-18T01:10:08.280Z,7.58
2018-01-18T01:10:48.673Z,7.6
2018-01-18T01:11:29.089Z,7.47
2018-01-18T01:12:09.761Z,7.51
2018-01-18T01:12:50.159Z,7.48
2018-01-18T01:13:30.570Z,7.42
2018-01-18T01:14:11.019Z,7.48
2018-01-18T01:14:51.392Z,7.54
2018-01-18T01:15:31.823Z,7.42
2018-01-18T01:16:12.203Z,7.47
2018-01-18T01:16:52.878Z,7.55
2018-01-18T01:17:33.242Z,7.48
2018-01-18T01:18:13.666Z,7.37
2018-01-18T01:18:54.048Z,7.48
2018-01-18T01:19:34.463Z,7.51
2018-01-18T01:20:14.884Z,7.47
2018-01-18T01:20:55.306Z,7.55
2018-01-18T01:21:35.710Z,7.57
2018-01-18T01:22:16.072Z,7.58
2018-01-18T01:22:56.484Z,7.57
2018-01-18T01:23:36.932Z,7.55
2018-01-18T01:24:17.262Z,7.47
2018-01-18T01:24:57.719Z,7.57
2018-01-18T01:25:38.089Z,7.6
2018-01-18T01:26:18.528Z,7.62
2018-01-18T01:26:58.937Z,7.57
2018-01-18T01:27:39.633Z,7.6
2018-01-18T01:28:19.906Z,7.66
2018-01-18T01:29:00.254Z,7.62
2018-01-18T01:29:40.629Z,7.45
2018-01-18T01:30:21.201Z,7.29
2018-01-18T01:31:01.644Z,7.23
2018-01-18T01:31:42.054Z,7.09
2018-01-18T01:32:22.669Z,7.14
2018-01-18T01:33:02.963Z,7.11
2018-01-18T01:33:43.351Z,7.11
2018-01-18T01:34:23.802Z,7.07
2018-01-18T01:35:04.213Z,7.05
2018-01-18T01:35:44.587Z,7.01
2018-01-18T01:36:24.979Z,7.05
2018-01-18T01:37:05.334Z,6.94
2018-01-18T01:37:45.838Z,6.91
2018-01-18T01:38:26.181Z,6.94
2018-01-18T01:39:06.539Z,6.91
2018-01-18T01:39:46.981Z,7.01
2018-01-18T01:40:27.435Z,7.08
2018-01-18T01:41:07.911Z,7.19
2018-01-18T01:41:48.433Z,7.16
2018-01-18T01:42:28.812Z,7.21
2018-01-18T01:43:09.246Z,7.19
2018-01-18T01:43:49.576Z,7.19
2018-01-18T01:44:30.069Z,7.19
2018-01-18T01:45:10.401Z,7.15
2018-01-18T01:45:50.816Z,7.18
2018-01-18T01:46:31.254Z,7.24
2018-01-18T01:47:11.609Z,7.39
2018-01-18T01:47:52.050Z,7.3
2018-01-18T01:48:32.478Z,7.34
2018-01-18T01:49:12.845Z,7.19
2018-01-18T01:49:53.363Z,7.14
2018-01-18T01:50:33.811Z,7.12
2018-01-18T01:51:14.235Z,7.14
2018-01-18T01:51:54.626Z,7.15
2018-01-18T01:52:34.953Z,7.21
2018-01-18T01:53:15.383Z,7.32
2018-01-18T01:53:55.727Z,7.26
2018-01-18T01:54:36.150Z,7.34
2018-01-18T01:55:16.514Z,7.34
2018-01-18T01:55:56.999Z,7.12
2018-01-18T01:56:37.415Z,6.97
2018-01-18T01:57:18.472Z,6.89
2018-01-18T01:57:58.880Z,6.83
2018-01-18T01:58:39.251Z,6.65
2018-01-18T01:59:19.696Z,6.57
2018-01-18T02:00:00.195Z,6.53
2018-01-18T02:00:40.610Z,6.57
2018-01-18T02:01:20.913Z,6.65
2018-01-18T02:02:01.382Z,6.73
2018-01-18T02:02:41.734Z,6.72
2018-01-18T02:03:22.916Z,6.6
2018-01-18T02:04:03.267Z,6.53
2018-01-18T02:04:43.645Z,6.65
2018-01-18T02:05:24.047Z,6.65
2018-01-18T02:06:04.348Z,6.79
2018-01-18T02:06:44.828Z,6.83
2018-01-18T02:07:25.191Z,7.05
2018-01-18T02:08:05.557Z,7.15
2018-01-18T02:08:46.401Z,7.29
2018-01-18T02:09:26.484Z,7.36
2018-01-18T02:10:06.932Z,7.44
2018-01-18T02:10:47.345Z,7.45
2018-01-18T02:11:27.838Z,7.54
2018-01-18T02:12:08.301Z,7.51
2018-01-18T02:12:48.650Z,7.48
2018-01-18T02:13:29.097Z,7.45
2018-01-18T02:14:09.456Z,7.47
2018-01-18T02:14:50.094Z,7.54
2018-01-18T02:15:30.751Z,7.47
2018-01-18T02:16:10.984Z,7.51
2018-01-18T02:16:51.537Z,7.41
2018-01-18T02:17:31.900Z,7.51
2018-01-18T02:18:12.335Z,7.54
2018-01-18T02:18:52.677Z,7.47
2018-01-18T02:19:36.091Z,7.45
2018-01-18T02:20:17.285Z,7.5
2018-01-18T02:20:57.651Z,7.55
2018-01-18T02:21:38.018Z,7.57
2018-01-18T02:22:18.470Z,7.48
2018-01-18T02:22:58.937Z,7.66
2018-01-18T02:23:39.283Z,7.58
2018-01-18T02:24:19.867Z,7.58
2018-01-18T02:25:00.246Z,7.63
2018-01-18T02:25:40.632Z,7.74
2018-01-18T02:26:21.141Z,7.76
2018-01-18T02:27:01.583Z,7.86
2018-01-18T02:27:41.895Z,7.74
2018-01-18T02:28:22.251Z,7.63
2018-01-18T02:29:02.650Z,7.63
2018-01-18T02:29:43.632Z,7.55
2018-01-18T02:30:24.032Z,7.48
2018-01-18T02:31:04.412Z,7.48
2018-01-18T02:31:44.793Z,7.24
2018-01-18T02:32:25.200Z,7.15
2018-01-18T02:33:05.540Z,7.09
2018-01-18T02:33:45.970Z,6.93
2018-01-18T02:34:26.368Z,6.93
2018-01-18T02:35:06.709Z,6.78
2018-01-18T02:35:47.216Z,6.65
2018-01-18T02:36:27.693Z,6.58
2018-01-18T02:37:07.917Z,6.54
2018-01-18T02:37:48.321Z,6.42
2018-01-18T02:38:28.753Z,6.35
2018-01-18T02:39:09.167Z,6.25
2018-01-18T02:39:49.555Z,6.1
2018-01-18T02:40:29.987Z,6.21
2018-01-18T02:41:10.692Z,6.24
2018-01-18T02:41:50.937Z,6.16
2018-01-18T02:42:31.330Z,6.08
2018-01-18T02:43:11.754Z,6.05
2018-01-18T02:43:52.150Z,6.05
2018-01-18T02:44:32.553Z,5.92
2018-01-18T02:45:12.940Z,5.92
2018-01-18T02:45:53.379Z,5.88
2018-01-18T02:46:33.798Z,5.92
2018-01-18T02:47:14.196Z,5.81
2018-01-18T02:47:54.535Z,5.8
2018-01-18T02:48:34.944Z,5.75
2018-01-18T02:49:15.380Z,5.75
2018-01-18T02:49:55.755Z,5.83
2018-01-18T02:50:36.163Z,5.83
2018-01-18T02:51:16.541Z,5.7
2018-01-18T02:51:56.892Z,5.77
2018-01-18T02:52:37.333Z,5.77
2018-01-18T02:53:17.696Z,5.74
2018-01-18T02:53:58.100Z,5.77
2018-01-18T02:54:38.526Z,5.7
2018-01-18T02:55:18.936Z,5.81
2018-01-18T02:55:59.459Z,5.77
2018-01-18T02:56:39.764Z,5.73
2018-01-18T02:57:20.211Z,5.75
2018-01-18T02:58:00.604Z,5.7
2018-01-18T02:58:40.960Z,5.67
2018-01-18T02:59:21.448Z,5.69
2018-01-18T03:00:01.721Z,5.7
2018-01-18T03:00:42.182Z,5.63
2018-01-18T03:01:22.592Z,5.63
2018-01-18T03:02:02.944Z,5.59
2018-01-18T03:02:43.353Z,5.63
2018-01-18T03:03:23.743Z,5.62
2018-01-18T03:04:04.169Z,5.59
2018-01-18T03:04:44.501Z,5.63
2018-01-18T03:05:24.959Z,5.62
2018-01-18T03:06:05.361Z,5.58
2018-01-18T03:06:45.710Z,5.49
2018-01-18T03:07:26.094Z,5.62
2018-01-18T03:08:06.537Z,5.55
2018-01-18T03:08:46.957Z,5.55
2018-01-18T03:09:27.368Z,5.58
2018-01-18T03:10:07.686Z,5.47
2018-01-18T03:10:48.102Z,5.51
2018-01-18T03:11:28.473Z,5.55
2018-01-18T03:12:08.859Z,5.59
2018-01-18T03:12:49.217Z,5.55
2018-01-18T03:13:29.692Z,5.55
2018-01-18T03:14:10.059Z,5.49
2018-01-18T03:14:50.506Z,5.48
2018-01-18T03:15:30.882Z,5.47
2018-01-18T03:16:11.275Z,5.44
2018-01-18T03:16:51.716Z,5.51
2018-01-18T03:17:32.060Z,5.47
2018-01-18T03:18:12.537Z,5.48
2018-01-18T03:18:52.875Z,5.42
2018-01-18T03:19:33.321Z,5.49
2018-01-18T03:20:13.697Z,5.44
2018-01-18T03:20:54.175Z,5.49
2018-01-18T03:21:34.602Z,5.45
2018-01-18T03:22:14.946Z,5.4
2018-01-18T03:22:55.366Z,5.33
2018-01-18T03:23:35.736Z,5.33
2018-01-18T03:24:16.089Z,5.35
2018-01-18T03:24:56.502Z,5.35
2018-01-18T03:25:36.841Z,5.37
2018-01-18T03:26:17.298Z,5.35
2018-01-18T03:26:57.660Z,5.37
2018-01-18T03:27:38.075Z,5.24
2018-01-18T03:28:18.548Z,5.37
2018-01-18T03:28:58.907Z,5.26
2018-01-18T03:29:39.254Z,5.32
2018-01-18T03:30:19.700Z,5.24
2018-01-18T03:31:00.087Z,5.26
2018-01-18T03:31:40.500Z,5.2
2018-01-18T03:32:20.906Z,5.27
2018-01-18T03:33:01.325Z,5.29
2018-01-18T03:33:41.670Z,5.24
2018-01-18T03:34:22.040Z,5.4
2018-01-18T03:35:02.426Z,5.37
2018-01-18T03:35:42.787Z,5.33
2018-01-18T03:36:23.211Z,5.37
2018-01-18T03:37:03.817Z,5.32
2018-01-18T03:37:44.214Z,5.32
2018-01-18T03:38:24.578Z,5.32
2018-01-18T03:39:05.031Z,5.37
2018-01-18T03:39:45.440Z,5.41
2018-01-18T03:40:25.902Z,5.33
2018-01-18T03:41:06.270Z,5.35
2018-01-18T03:41:46.619Z,5.33
2018-01-18T03:42:27.082Z,5.4
2018-01-18T03:43:07.475Z,5.38
2018-01-18T03:43:47.858Z,5.41
2018-01-18T03:44:28.256Z,5.37
2018-01-18T03:45:08.636Z,5.33
2018-01-18T03:45:49.020Z,5.35
2018-01-18T03:46:29.429Z,5.38
2018-01-18T03:47:09.828Z,5.35
2018-01-18T03:47:50.199Z,5.32
2018-01-18T03:48:30.618Z,5.37
2018-01-18T03:49:10.961Z,5.35
2018-01-18T03:49:51.384Z,5.35
2018-01-18T03:50:31.806Z,5.37
2018-01-18T03:51:12.191Z,5.29
2018-01-18T03:51:52.553Z,5.29
2018-01-18T03:52:32.994Z,5.23
2018-01-18T03:53:13.346Z,5.3
2018-01-18T03:53:53.797Z,5.3
2018-01-18T03:54:34.134Z,5.33
2018-01-18T03:55:14.604Z,5.33
2018-01-18T03:55:54.957Z,5.27
2018-01-18T03:56:35.382Z,5.35
2018-01-18T03:57:15.756Z,5.24
2018-01-18T03:57:56.207Z,5.24
2018-01-18T03:58:36.575Z,5.24
2018-01-18T03:59:17.088Z,5.29
2018-01-18T03:59:58.066Z,5.19
2018-01-18T04:00:38.389Z,5.17
2018-01-18T04:01:18.774Z,5.12
2018-01-18T04:01:59.202Z,5.12
2018-01-18T04:42:05.898Z,4.59
2018-01-18T04:43:48.702Z,4.54
2018-01-18T04:44:30.197Z,4.64
2018-01-18T04:45:10.778Z,4.62
2018-01-18T04:45:52.858Z,4.64
2018-01-18T04:46:33.197Z,4.59
2018-01-18T04:47:13.617Z,4.65
2018-01-18T04:47:54.379Z,4.75
2018-01-18T04:48:35.178Z,4.8
2018-01-18T04:49:15.776Z,4.79
2018-01-18T04:49:56.370Z,4.8
2018-01-18T04:50:39.111Z,4.83
2018-01-18T04:51:23.219Z,4.79
2018-01-18T04:52:03.824Z,4.79
2018-01-18T04:52:50.140Z,4.93
2018-01-18T04:53:31.213Z,4.93
2018-01-18T04:54:11.244Z,5.02
2018-01-18T04:54:52.260Z,5.02
2018-01-18T04:55:32.669Z,5.17
2018-01-18T04:56:14.677Z,5.22
2018-01-18T04:56:55.284Z,5.27
2018-01-18T04:57:35.961Z,5.33
2018-01-18T04:58:16.413Z,5.56
2018-01-18T04:58:57.858Z,5.8
2018-01-18T04:59:38.176Z,5.93
2018-01-18T05:00:18.918Z,6.11
2018-01-18T05:00:59.777Z,6.28
2018-01-18T05:01:41.090Z,6.3
2018-01-18T05:02:21.784Z,6.53
2018-01-18T05:03:02.851Z,6.54
2018-01-18T05:03:43.200Z,6.68
2018-01-18T05:04:23.651Z,6.68
2018-01-18T05:05:04.199Z,6.86
2018-01-18T05:05:45.343Z,6.91
2018-01-18T05:06:26.636Z,6.87
2018-01-18T05:07:07.289Z,6.83
2018-01-18T05:08:50.171Z,6.94
2018-01-18T05:09:42.317Z,7.15
2018-01-18T05:11:51.362Z,7.19
2018-01-18T05:12:35.085Z,7.16
2018-01-18T05:13:15.710Z,7.19
2018-01-18T05:15:11.525Z,7.19
2018-01-18T05:16:52.764Z,7.21
2018-01-18T05:17:33.101Z,7.19
2018-01-18T05:18:13.639Z,7.14
2018-01-18T05:18:54.264Z,7.21
2018-01-18T05:19:36.076Z,7.32
2018-01-18T05:20:17.972Z,7.42
2018-01-18T05:20:59.209Z,7.51
2018-01-18T05:21:39.639Z,7.57
2018-01-18T05:22:20.109Z,7.47
2018-01-18T05:23:00.592Z,7.34
2018-01-18T05:23:41.110Z,7.51
2018-01-18T05:24:21.655Z,7.47
2018-01-18T05:25:05.067Z,7.57
2018-01-18T05:25:45.714Z,7.54
2018-01-18T05:26:26.092Z,7.45
2018-01-18T05:27:07.716Z,7.58
2018-01-18T05:27:48.142Z,7.55
2018-01-18T05:28:29.494Z,7.63
2018-01-18T05:29:10.764Z,7.73
2018-01-18T05:29:51.239Z,7.74
2018-01-18T05:30:31.521Z,7.82
2018-01-18T05:31:11.979Z,7.79
2018-01-18T05:31:52.470Z,7.92
2018-01-18T05:32:32.947Z,7.89
2018-01-18T05:33:13.419Z,8.02
2018-01-18T05:33:54.520Z,8.1
2018-01-18T05:34:34.984Z,7.99
2018-01-18T05:35:15.813Z,8.09
2018-01-18T05:35:56.190Z,8.07
2018-01-18T05:36:36.667Z,8.06
2018-01-18T05:37:18.913Z,7.99
2018-01-18T05:37:59.821Z,7.94
2018-01-18T05:38:40.213Z,8.03
2018-01-18T05:39:20.759Z,8.04
2018-01-18T05:40:01.202Z,8.09
2018-01-18T05:40:41.673Z,8.24
2018-01-18T05:41:22.102Z,8.18
2018-01-18T05:42:02.619Z,8.04
2018-01-18T05:42:42.977Z,8.04
2018-01-18T05:43:23.652Z,7.92
2018-01-18T05:44:03.885Z,8
2018-01-18T05:44:45.056Z,8.04
2018-01-18T05:45:26.489Z,8.1
2018-01-18T05:46:06.938Z,8.14
2018-01-18T05:46:48.014Z,8.22
2018-01-18T05:47:28.609Z,8.22
2018-01-18T05:48:09.840Z,8.22
2018-01-18T05:48:50.016Z,8.2
2018-01-18T05:49:30.445Z,8.4
2018-01-18T05:50:11.000Z,8.29
2018-01-18T05:50:51.410Z,8.34
2018-01-18T05:51:31.892Z,8.31
2018-01-18T05:52:12.279Z,8.18
2018-01-18T05:52:52.810Z,7.92
2018-01-18T05:53:34.117Z,7.96
2018-01-18T05:54:15.449Z,7.89
2018-01-18T05:54:56.565Z,7.84
2018-01-18T05:55:37.821Z,7.85
2018-01-18T05:56:18.245Z,7.89
2018-01-18T05:56:58.685Z,8
2018-01-18T05:57:39.139Z,8.07
2018-01-18T05:58:19.761Z,8.13
2018-01-18T05:59:00.167Z,8.22
2018-01-18T05:59:40.525Z,8.27
2018-01-18T06:00:21.126Z,8.36
2018-01-18T06:03:25.962Z,8.6
2018-01-18T06:04:07.210Z,8.67
2018-01-18T06:04:47.797Z,8.75
2018-01-18T06:05:28.353Z,8.79
2018-01-18T06:06:08.606Z,8.78
2018-01-18T06:06:49.035Z,8.79
2018-01-18T06:07:29.497Z,8.89
2018-01-18T06:08:10.565Z,8.93
2018-01-18T06:08:50.724Z,8.93
2018-01-18T06:09:31.992Z,8.98
2018-01-18T06:10:12.516Z,8.91
2018-01-18T06:10:54.142Z,8.85
2018-01-18T06:11:37.538Z,8.73
2018-01-18T06:12:19.360Z,8.73
2018-01-18T06:12:59.766Z,8.73
2018-01-18T06:13:42.798Z,8.71
2018-01-18T06:14:26.476Z,8.76
2018-01-18T06:15:07.359Z,8.82
2018-01-18T06:15:48.363Z,8.89
2018-01-18T06:16:37.649Z,8.88
2018-01-18T06:17:25.163Z,8.88
2018-01-18T06:18:07.940Z,8.75
2018-01-18T06:18:48.738Z,8.76
2018-01-18T06:19:35.159Z,8.86
2018-01-18T06:20:18.152Z,8.91
2018-01-18T06:20:59.752Z,8.94
2018-01-18T06:21:41.160Z,8.93
2018-01-18T06:22:22.530Z,8.89
2018-01-18T06:23:05.693Z,8.94
2018-01-18T06:23:48.928Z,8.96
2018-01-18T06:24:30.604Z,9
2018-01-18T06:25:17.528Z,9.1
2018-01-18T06:26:00.683Z,9.08
2018-01-18T06:26:45.581Z,9.08
2018-01-18T06:27:27.013Z,9.1
2018-01-18T06:28:09.658Z,9.15
2018-01-18T06:28:51.125Z,9.17
2018-01-18T06:29:32.824Z,9.2
2018-01-18T06:30:16.287Z,9.2
2018-01-18T06:31:00.495Z,9.27
2018-01-18T06:31:44.056Z,9.34
2018-01-18T06:32:25.521Z,9.2
2018-01-18T06:33:09.200Z,9.22
2018-01-18T06:33:53.283Z,9.3
2018-01-18T06:34:38.098Z,9.34
2018-01-18T06:35:21.610Z,9.35
2018-01-18T06:36:02.691Z,9.3
2018-01-18T06:36:46.942Z,9.34
2018-01-18T06:39:02.646Z,9.63
2018-01-18T06:39:48.362Z,9.67
2018-01-18T06:40:28.740Z,9.7
2018-01-18T06:41:09.524Z,9.7
2018-01-18T06:41:50.219Z,9.68
2018-01-18T06:42:30.596Z,9.68
2018-01-18T06:43:11.141Z,9.77
2018-01-18T06:43:52.418Z,9.68
2018-01-18T06:44:32.875Z,9.68
2018-01-18T06:45:13.722Z,9.81
2018-01-18T06:45:55.169Z,9.88
2018-01-18T06:46:35.855Z,9.78
2018-01-18T06:47:16.215Z,9.92
2018-01-18T06:47:56.663Z,9.88
2018-01-18T06:48:38.010Z,9.83
2018-01-18T06:49:19.102Z,9.91
2018-01-18T06:50:00.701Z,9.88
2018-01-18T06:50:42.004Z,9.91
2018-01-18T06:51:22.867Z,10.02
2018-01-18T06:52:03.674Z,9.96
2018-01-18T06:52:44.111Z,10.01
2018-01-18T06:53:25.779Z,9.98
2018-01-18T06:54:06.735Z,10.02
2018-01-18T06:54:47.190Z,10.11
2018-01-18T06:55:28.066Z,10.16
2018-01-18T06:56:10.426Z,10.2
2018-01-18T06:56:51.210Z,10.18
2018-01-18T06:57:32.833Z,10.24
2018-01-18T06:58:13.402Z,10.36
2018-01-18T06:58:58.479Z,10.31
2018-01-18T06:59:38.946Z,10.38
2018-01-18T07:00:19.553Z,10.51
2018-01-18T07:01:00.858Z,10.6
2018-01-18T07:01:41.161Z,10.7
2018-01-18T07:02:21.652Z,10.8
2018-01-18T07:03:02.583Z,10.83
2018-01-18T07:03:43.093Z,10.81
2018-01-18T07:04:23.466Z,10.9
2018-01-18T07:05:04.124Z,10.87
2018-01-18T07:05:44.714Z,10.95
2018-01-18T07:06:25.080Z,10.9
2018-01-18T07:07:05.590Z,10.9
2018-01-18T07:07:46.453Z,11.01
2018-01-18T07:08:27.744Z,10.93
2018-01-18T07:09:08.251Z,10.93
2018-01-18T07:09:48.924Z,10.95
2018-01-18T07:10:29.513Z,11.01
2018-01-18T07:11:09.849Z,10.88
2018-01-18T07:11:50.355Z,10.95
2018-01-18T07:12:31.663Z,11.02
2018-01-18T07:13:13.233Z,11.11
2018-01-18T07:13:54.262Z,11.03
2018-01-18T07:14:34.855Z,11.06
2018-01-18T07:15:16.095Z,11.03
2018-01-18T07:15:56.235Z,11.08
2018-01-18T07:16:36.901Z,10.99
2018-01-18T07:17:17.293Z,11.17
2018-01-18T07:17:58.109Z,11.17
2018-01-18T07:18:38.969Z,11.06
2018-01-18T07:19:19.569Z,11.05
2018-01-18T07:20:00.494Z,11.08
2018-01-18T07:20:41.085Z,11.05
2018-01-18T07:21:21.685Z,10.93
2018-01-18T07:22:02.306Z,10.95
2018-01-18T07:22:43.108Z,10.95
2018-01-18T07:23:24.065Z,10.99
2018-01-18T07:24:04.496Z,10.98
2018-01-18T07:24:45.697Z,10.93
2018-01-18T07:25:26.256Z,11.01
2018-01-18T07:26:06.564Z,11.01
2018-01-18T07:26:47.173Z,10.99
2018-01-18T07:27:28.200Z,10.84
2018-01-18T07:28:08.706Z,10.9
2018-01-18T07:28:51.008Z,10.84
2018-01-18T07:29:31.240Z,10.81
2018-01-18T07:30:12.414Z,10.84
2018-01-18T07:30:53.861Z,10.81
2018-01-18T07:31:34.534Z,10.8
2018-01-18T07:32:15.862Z,10.7
2018-01-18T07:32:56.805Z,10.78
2018-01-18T07:33:37.533Z,10.84
2018-01-18T07:34:18.872Z,10.78
2018-01-18T07:34:59.857Z,10.76
2018-01-18T07:35:41.153Z,10.8
2018-01-18T07:36:21.838Z,10.94
2018-01-18T07:37:02.252Z,10.93
2018-01-18T07:37:43.924Z,11.03
2018-01-18T07:38:24.908Z,11.05
2018-01-18T07:39:06.230Z,11.11
2018-01-18T07:39:46.900Z,11.08
2018-01-18T07:40:28.877Z,11.03
2018-01-18T07:41:09.452Z,11.08
2018-01-18T07:41:50.450Z,11.08
2018-01-18T07:42:30.837Z,11.06
2018-01-18T07:44:30.194Z,11.12
2018-01-18T07:47:04.111Z,11.2
2018-01-18T07:47:47.636Z,11.21
2018-01-18T07:48:29.113Z,11.19
2018-01-18T07:49:09.404Z,11.13
2018-01-18T07:50:00.600Z,11.17
2018-01-18T07:50:42.349Z,11.2
2018-01-18T07:51:25.708Z,11.2
2018-01-18T07:52:07.373Z,11.23
2018-01-18T07:52:49.365Z,11.26
2018-01-18T07:53:33.144Z,11.21
2018-01-18T07:54:14.385Z,11.24
2018-01-18T07:54:57.153Z,11.17
2018-01-18T07:55:41.525Z,11.2
2018-01-18T07:56:21.566Z,11.28
2018-01-18T07:57:03.607Z,11.24
2018-01-18T09:41:40.654Z,13.86
2018-01-18T09:42:25.879Z,13.83
2018-01-18T09:43:06.202Z,13.87
2018-01-18T09:43:46.972Z,13.83
2018-01-18T09:44:27.458Z,13.66
2018-01-18T09:45:08.418Z,13.63
2018-01-18T09:45:50.096Z,13.72
2018-01-18T09:46:30.630Z,13.81
2018-01-18T09:47:11.549Z,13.71
2018-01-18T09:47:52.240Z,13.62
2018-01-18T09:48:33.137Z,13.53
2018-01-18T09:49:14.049Z,13.48
2018-01-18T09:49:55.395Z,13.32
2018-01-18T09:50:35.917Z,13.24
2018-01-18T09:51:17.898Z,13.29
2018-01-18T09:51:58.438Z,13.17
2018-01-18T09:52:39.155Z,13.27
2018-01-18T09:53:20.342Z,13.14
2018-01-18T09:54:00.810Z,13.24
2018-01-18T09:54:41.438Z,13.22
2018-01-18T09:55:22.103Z,13.24
2018-01-18T09:56:02.765Z,13.25
2018-01-18T09:56:43.326Z,13.14
2018-01-18T09:57:23.711Z,13.04
2018-01-18T09:58:04.479Z,12.92
2018-01-18T09:58:45.247Z,12.98
2018-01-18T09:59:25.684Z,12.87
2018-01-18T10:00:06.667Z,12.79
2018-01-18T10:00:47.091Z,12.94
2018-01-18T10:01:27.594Z,12.81
2018-01-18T10:02:08.166Z,12.84
2018-01-18T10:02:48.720Z,12.92
2018-01-18T10:03:29.339Z,13.03
2018-01-18T10:04:10.503Z,13.09
2018-01-18T10:44:47.437Z,12.29
2018-01-18T10:45:46.102Z,12.4
2018-01-18T10:47:38.979Z,12.84
2018-01-18T10:49:27.457Z,13.21
2018-01-18T10:50:07.096Z,13.47
2018-01-18T10:50:47.457Z,13.57
2018-01-18T10:51:28.460Z,13.57
2018-01-18T10:52:08.910Z,13.59
2018-01-18T10:52:49.247Z,13.66
2018-01-18T10:53:30.667Z,13.76
2018-01-18T10:54:11.259Z,13.84
2018-01-18T10:54:52.117Z,13.81
2018-01-18T10:55:32.997Z,13.88
2018-01-18T10:56:13.850Z,13.86
2018-01-18T10:56:54.673Z,13.83
2018-01-18T10:57:35.893Z,13.72
2018-01-18T10:58:17.031Z,13.54
2018-01-18T10:58:58.111Z,13.48
2018-01-18T10:59:38.553Z,13.47
2018-01-18T11:00:19.716Z,13.39
2018-01-18T11:01:00.724Z,13.29
2018-01-18T11:01:41.543Z,13.29
2018-01-18T11:02:22.308Z,13.13
2018-01-18T11:03:03.185Z,12.99
2018-01-18T11:03:43.658Z,12.96
2018-01-18T11:04:24.383Z,12.95
2018-01-18T11:05:04.720Z,12.88
2018-01-18T11:05:45.199Z,12.67
2018-01-18T11:06:26.090Z,12.56
2018-01-18T11:07:06.494Z,12.61
2018-01-18T11:07:47.007Z,12.49
2018-01-18T11:08:27.885Z,12.41
2018-01-18T11:09:08.220Z,12.37
2018-01-18T11:09:48.877Z,12.22
2018-01-18T11:10:29.712Z,12.15
2018-01-18T11:11:10.335Z,12.08
2018-01-18T11:11:51.207Z,11.96
2018-01-18T11:12:31.622Z,11.96
2018-01-18T11:13:12.468Z,11.88
2018-01-18T11:13:53.264Z,11.88
2018-01-18T11:14:33.816Z,11.94
2018-01-18T11:15:14.697Z,11.82
2018-01-18T11:15:55.123Z,11.88
2018-01-18T11:16:35.578Z,11.9
2018-01-18T11:17:16.264Z,11.82
2018-01-18T11:17:56.839Z,11.74
2018-01-18T11:18:37.678Z,11.74
2018-01-18T11:19:18.040Z,11.78
2018-01-18T11:19:58.592Z,11.63
2018-01-18T11:20:39.158Z,11.69
2018-01-18T11:21:19.626Z,11.59
2018-01-18T11:22:00.628Z,11.48
2018-01-18T11:22:41.086Z,11.51
2018-01-18T11:23:22.248Z,11.48
2018-01-18T11:24:04.128Z,11.57
2018-01-18T11:34:00.527Z,12.12
2018-01-18T11:35:03.394Z,12.05
2018-01-18T11:36:04.175Z,11.88
2018-01-18T11:37:01.528Z,11.97
2018-01-18T11:39:02.959Z,12.13
2018-01-18T11:39:59.426Z,12.16
2018-01-18T11:40:53.590Z,11.96
2018-01-18T11:41:46.966Z,12.12
2018-01-18T11:42:41.867Z,12.12
2018-01-18T11:43:45.293Z,12.34
2018-01-18T11:44:42.041Z,12.49
2018-01-18T11:45:41.529Z,12.51
2018-01-18T11:46:42.938Z,12.62
2018-01-18T11:47:46.003Z,12.77
2018-01-18T11:48:42.723Z,13.06
2018-01-18T11:49:41.214Z,13.19
2018-01-18T11:50:50.752Z,13.48
2018-01-18T11:51:45.396Z,13.57
2018-01-18T11:52:38.199Z,13.47
2018-01-18T11:53:33.277Z,13.29
2018-01-18T11:54:35.174Z,13.38
2018-01-18T11:55:32.277Z,13.38
2018-01-18T11:56:31.228Z,13.54
2018-01-18T11:57:25.365Z,13.84
2018-01-18T11:58:23.091Z,13.87
2018-01-18T11:59:20.203Z,13.98
2018-01-18T12:01:55.424Z,14.04
2018-01-18T12:02:49.642Z,14.17
2018-01-18T12:03:50.133Z,14.05
2018-01-18T12:04:46.807Z,13.9
2018-01-18T12:05:43.990Z,13.81
2018-01-18T12:06:38.666Z,13.84
2018-01-18T12:07:34.788Z,13.75
2018-01-18T12:08:32.055Z,13.69
2018-01-18T12:09:26.997Z,13.48
2018-01-18T12:10:22.389Z,13.38
2018-01-18T12:12:31.193Z,13.31
2018-01-18T12:13:27.698Z,13.32
2018-01-18T12:14:26.326Z,13.41
2018-01-18T12:15:22.212Z,13.55
2018-01-18T12:16:22.684Z,13.55
2018-01-18T12:17:17.347Z,13.65
2018-01-18T12:18:14.938Z,13.55
2018-01-18T12:19:08.289Z,13.44
2018-01-18T12:20:01.434Z,13.31
2018-01-18T12:20:54.731Z,13.24
2018-01-18T12:21:54.025Z,13.19
2018-01-18T12:22:51.643Z,13.24
2018-01-18T12:23:46.820Z,13.28
2018-01-18T12:24:44.552Z,13.21
2018-01-18T12:25:42.913Z,13.07
2018-01-18T12:26:38.161Z,13.13
2018-01-18T12:27:44.453Z,13.16
2018-01-18T12:28:58.692Z,13.41
2018-01-18T12:29:55.875Z,13.48
2018-01-18T12:30:57.264Z,13.47
2018-01-18T12:32:51.730Z,13.66
2018-01-18T12:33:33.875Z,13.75
2018-01-18T12:34:15.430Z,13.84
2018-01-18T12:34:56.463Z,13.88
2018-01-18T12:35:45.997Z,13.87
2018-01-18T12:36:28.792Z,13.91
2018-01-18T12:37:08.735Z,14.11
2018-01-18T12:37:49.475Z,14.01
2018-01-18T12:38:30.066Z,14.09
2018-01-18T12:39:10.819Z,13.98
2018-01-18T12:39:54.600Z,13.88
2018-01-18T12:40:35.325Z,13.76
2018-01-18T12:41:15.971Z,13.59
2018-01-18T12:41:56.408Z,13.55
2018-01-18T12:42:36.961Z,13.46
2018-01-18T12:43:17.585Z,13.36
2018-01-18T12:43:58.066Z,13.35
2018-01-18T12:44:39.753Z,13.29
2018-01-18T12:45:20.232Z,13.39
2018-01-18T12:46:00.873Z,13.44
2018-01-18T12:46:41.752Z,13.51
2018-01-18T12:47:22.757Z,13.53
2018-01-18T12:48:04.391Z,13.53